Loch Shuna — 3FDR7 — position and weather

sailwx.info

Track history (hours):
 
Tides and Currents Weather Stations Pressure Air Temp Water Temp Dewpoint Dewpoint Depression Visibility Wind Speed Wind Dir Waves Ship Positions

Loch Shuna

Last reported at 2018-Jan-24 00:38 UTC. Time now 2018-Feb-18 20:24 UTC.
Position N 34°49' W 015°00'.
Warning: this ship's position is 25 days out of date.

Length 190 m; draft 11.7 m.

Type: Cargo ship. MMSI: 351474000.

Date/timePositionNaut miles runAvg speedWind from/ knotsBaromVisibWave heightAir tempDewpointWater temp
2018-Jan-24 00:38N 34°49' W 015°00'213.6
2018-Jan-24 00:28N 34°49' W 014°57'1613.3
2018-Jan-23 23:18N 34°52' W 014°39'12013.3
2018-Jan-23 14:15N 35°12' W 012°14'4613.0
2018-Jan-23 10:43N 35°20' W 011°19'28113.3
2018-Jan-22 13:34N 35°58' W 005°36'1 9.8
2018-Jan-22 13:30N 35°58' W 005°35'4 8.4
2018-Jan-22 13:00N 35°59' W 005°30'5 9.4
2018-Jan-22 12:30N 36°00' W 005°25'4 8.8
2018-Jan-22 12:00N 36°02' W 005°20'4 8.3
2018-Jan-22 11:30N 36°02' W 005°15'15211.8
2018-Jan-21 22:36N 36°13' W 002°07'112.6
2018-Jan-21 22:30N 36°13' W 002°05'1212.5
2018-Jan-21 21:34N 36°14' W 001°51'112.3
2018-Jan-21 21:30N 36°14' W 001°50'2311.6
2018-Jan-21 19:30N 36°17' W 001°22'612.5
2018-Jan-21 19:00N 36°20' W 001°14'712.7
2018-Jan-21 18:26N 36°22' W 001°06'612.7
2018-Jan-21 18:00N 36°24' W 000°60'612.5
2018-Jan-21 17:30N 36°26' W 000°52'612.6
2018-Jan-21 17:00N 36°28' W 000°45'612.8
2018-Jan-21 16:30N 36°30' W 000°37'612.7
2018-Jan-21 16:00N 36°32' W 000°30'612.6
2018-Jan-21 15:30N 36°35' W 000°22'712.7
2018-Jan-21 14:58N 36°37' W 000°15'1212.8
2018-Jan-21 14:00N 36°41' W 000°00'712.5
2018-Jan-21 13:28N 36°44' E 000°08'712.6
2018-Jan-21 12:56N 36°46' E 000°15'612.7
2018-Jan-21 12:30N 36°48' E 000°22'612.8
2018-Jan-21 12:00N 36°50' E 000°29'712.7
2018-Jan-21 11:27N 36°53' E 000°37'1212.6
2018-Jan-21 10:30N 36°55' E 000°52'912.4
2018-Jan-21 09:48N 36°57' E 001°03'512.1
2018-Jan-21 09:22N 36°58' E 001°09'411.6
2018-Jan-21 09:00N 36°58' E 001°14'611.7
2018-Jan-21 08:30N 36°59' E 001°22'611.5
2018-Jan-21 08:00N 36°59' E 001°29'611.1
2018-Jan-21 07:30N 37°00' E 001°36'510.5
2018-Jan-21 07:00N 37°01' E 001°42'510.8
2018-Jan-21 06:30N 37°01' E 001°49'56712.1
2018-Jan-19 07:41N 36°40' E 013°37'313.9
2018-Jan-19 07:30N 36°39' E 013°40'713.9
2018-Jan-19 07:00N 36°37' E 013°48'713.7
2018-Jan-19 06:29N 36°35' E 013°57'713.4
2018-Jan-19 05:57N 36°33' E 014°05'613.1
2018-Jan-19 05:30N 36°31' E 014°12'713.1
2018-Jan-19 05:00N 36°29' E 014°20'613.0
2018-Jan-19 04:30N 36°27' E 014°28'613.1
2018-Jan-19 04:00N 36°25' E 014°35'812.8
2018-Jan-19 03:24N 36°22' E 014°44'512.7
2018-Jan-19 03:00N 36°21' E 014°50'  
Track history (hours):
 
Tides and Currents Weather Stations Pressure Air Temp Water Temp Dewpoint Dewpoint Depression Visibility Wind Speed Wind Dir Waves Ship Positions

Loch Shuna

Last reported at 2018-Jan-24 00:38 UTC. Time now 2018-Feb-18 20:24 UTC.
Position N 34°49' W 015°00'.
Warning: this ship's position is 25 days out of date.

Length 190 m; draft 11.7 m.

Type: Cargo ship. MMSI: 351474000.

Date/timePositionNaut miles runAvg speedWind from/ knotsBaromVisibWave heightAir tempDewpointWater temp
2018-Jan-24 00:38N 34°49' W 015°00'213.6
2018-Jan-24 00:28N 34°49' W 014°57'1613.3
2018-Jan-23 23:18N 34°52' W 014°39'12013.3
2018-Jan-23 14:15N 35°12' W 012°14'4613.0
2018-Jan-23 10:43N 35°20' W 011°19'28113.3
2018-Jan-22 13:34N 35°58' W 005°36'1 9.8
2018-Jan-22 13:30N 35°58' W 005°35'4 8.4
2018-Jan-22 13:00N 35°59' W 005°30'5 9.4
2018-Jan-22 12:30N 36°00' W 005°25'4 8.8
2018-Jan-22 12:00N 36°02' W 005°20'4 8.3
2018-Jan-22 11:30N 36°02' W 005°15'15211.8
2018-Jan-21 22:36N 36°13' W 002°07'112.6
2018-Jan-21 22:30N 36°13' W 002°05'1212.5
2018-Jan-21 21:34N 36°14' W 001°51'112.3
2018-Jan-21 21:30N 36°14' W 001°50'2311.6
2018-Jan-21 19:30N 36°17' W 001°22'612.5
2018-Jan-21 19:00N 36°20' W 001°14'712.7
2018-Jan-21 18:26N 36°22' W 001°06'612.7
2018-Jan-21 18:00N 36°24' W 000°60'612.5
2018-Jan-21 17:30N 36°26' W 000°52'612.6
2018-Jan-21 17:00N 36°28' W 000°45'612.8
2018-Jan-21 16:30N 36°30' W 000°37'612.7
2018-Jan-21 16:00N 36°32' W 000°30'612.6
2018-Jan-21 15:30N 36°35' W 000°22'712.7
2018-Jan-21 14:58N 36°37' W 000°15'1212.8
2018-Jan-21 14:00N 36°41' W 000°00'712.5
2018-Jan-21 13:28N 36°44' E 000°08'712.6
2018-Jan-21 12:56N 36°46' E 000°15'612.7
2018-Jan-21 12:30N 36°48' E 000°22'612.8
2018-Jan-21 12:00N 36°50' E 000°29'712.7
2018-Jan-21 11:27N 36°53' E 000°37'1212.6
2018-Jan-21 10:30N 36°55' E 000°52'912.4
2018-Jan-21 09:48N 36°57' E 001°03'512.1
2018-Jan-21 09:22N 36°58' E 001°09'411.6
2018-Jan-21 09:00N 36°58' E 001°14'611.7
2018-Jan-21 08:30N 36°59' E 001°22'611.5
2018-Jan-21 08:00N 36°59' E 001°29'611.1
2018-Jan-21 07:30N 37°00' E 001°36'510.5
2018-Jan-21 07:00N 37°01' E 001°42'510.8
2018-Jan-21 06:30N 37°01' E 001°49'56712.1
2018-Jan-19 07:41N 36°40' E 013°37'313.9
2018-Jan-19 07:30N 36°39' E 013°40'713.9
2018-Jan-19 07:00N 36°37' E 013°48'713.7
2018-Jan-19 06:29N 36°35' E 013°57'713.4
2018-Jan-19 05:57N 36°33' E 014°05'613.1
2018-Jan-19 05:30N 36°31' E 014°12'713.1
2018-Jan-19 05:00N 36°29' E 014°20'613.0
2018-Jan-19 04:30N 36°27' E 014°28'613.1
2018-Jan-19 04:00N 36°25' E 014°35'812.8
2018-Jan-19 03:24N 36°22' E 014°44'512.7
2018-Jan-19 03:00N 36°21' E 014°50'  

Dump ship's entire track history